Flight Track Log - Related Links

Times and Time Zones

All times are in EDT time to prevent confusion due to time zone crossing. See the QLK117D flight status page for this flight to view local times or setup timezone preferences in your user account.

Time Position Orientation Groundspeed Altitude Reporting Facility
EDT Latitude Longitude Course Direction KTS MPH feet Rate Location/Type
Mon 03:05:08 AM -30.3122 153.1172 212° Southwest 22,000  Level Aus ATC (Calculated)
Mon 03:06:00 AM -30.3595 153.0791 211° Southwest 22,000 -6,415 Level Aus ATC (Calculated)
Mon 03:07:00 AM -30.3828 153.0604 215° Southwest  Level FlightAware Approximate
Mon 03:07:18 AM -30.5006 152.9807 215° Southwest 436 502 8,100  Level Aus ATC (RADAR)
Mon 03:07:57 AM -30.5358 152.9486 218° Southwest 261 300 9,500 2,051 Climbing Aus ATC (RADAR)
Mon 03:08:37 AM -30.5732 152.9158 217° Southwest 256 295 10,800 1,875 Climbing Aus ATC (RADAR)
Mon 03:09:17 AM -30.6129 152.8835 215° Southwest 261 300 12,000 1,860 Climbing Aus ATC (RADAR)
Mon 03:10:17 AM -30.6718 152.8342 216° Southwest 260 299 13,900 1,722 Climbing Aus ATC (RADAR)
Mon 03:11:12 AM -30.7255 152.7895 216° Southwest 260 299 15,300 1,418 Climbing Aus ATC (RADAR)
Mon 03:12:07 AM -30.7816 152.7452 214° Southwest 264 304 16,500 1,200 Climbing Aus ATC (RADAR)
Mon 03:12:47 AM -30.8211 152.7131 215° Southwest 261 300 17,200 1,040 Climbing Aus ATC (RADAR)
Mon 03:13:22 AM -30.8559 152.6844 215° Southwest 263 303 17,800 1,029 Climbing Aus ATC (RADAR)
Mon 03:13:57 AM -30.8905 152.6553 216° Southwest 262 302 18,400 1,029 Climbing Aus ATC (RADAR)
Mon 03:14:32 AM -30.9256 152.6271 215° Southwest 262 302 19,000 870 Climbing Aus ATC (RADAR)
Mon 03:15:06 AM -30.9594 152.5976 217° Southwest 260 299 19,400 865 Climbing Aus ATC (RADAR)
Mon 03:16:16 AM -31.0292 152.5398 215° Southwest 263 303 20,500 1,200 Climbing Aus ATC (RADAR)
Mon 03:16:51 AM -31.0637 152.5126 214° Southwest 257 296 21,500 1,000 Climbing Aus ATC (RADAR)
Mon 03:17:46 AM -31.1161 152.4688 216° Southwest 256 295 22,000 632 Climbing Aus ATC (RADAR)
Mon 03:18:26 AM -31.1548 152.4365 216° Southwest 258 297 22,500 400 Climbing Aus ATC (RADAR)
Mon 03:19:01 AM -31.1905 152.4073 215° Southwest 269 310 22,500  Level Aus ATC (RADAR)
Mon 03:19:46 AM -31.2384 152.3676 215° Southwest 283 326 22,500  Level Aus ATC (RADAR)
Mon 03:21:01 AM -31.3211 152.2991 215° Southwest 295 339 22,500  Level Aus ATC (RADAR)
Mon 03:21:41 AM -31.3653 152.2619 216° Southwest 295 339 22,500  Level Aus ATC (RADAR)
Mon 03:22:31 AM -31.4214 152.2151 215° Southwest 297 342 22,500  Level Aus ATC (RADAR)
Mon 03:23:21 AM -31.4774 152.1683 216° Southwest 298 343 22,500  Level Aus ATC (RADAR)
Mon 03:23:56 AM -31.5168 152.1358 215° Southwest 297 342 22,500  Level Aus ATC (RADAR)
Mon 03:24:41 AM -31.5671 152.0935 216° Southwest 298 343 22,500  Level Aus ATC (RADAR)
Mon 03:25:40 AM -31.6344 152.0372 215° Southwest 297 342 22,500  Level Aus ATC (RADAR)
Mon 03:26:35 AM -31.6954 151.9859 216° Southwest 294 338 22,500  Level Aus ATC (RADAR)
Mon 03:27:36 AM -31.7603 151.9310 216° Southwest 289 333 22,500  Level Aus ATC (RADAR)
Mon 03:28:20 AM -31.8114 151.8880 216° Southwest 295 339 22,500  Level Aus ATC (RADAR)
Mon 03:28:51 AM -31.8429 151.8611 216° Southwest 289 333 22,500  Level Aus ATC (RADAR)
Mon 03:29:30 AM -31.8883 151.8230 216° Southwest 292 336 22,500  Level Aus ATC (RADAR)
Mon 03:30:01 AM -31.9195 151.7966 216° Southwest 286 329 22,500  Level Aus ATC (RADAR)
Mon 03:30:36 AM -31.9579 151.7641 216° Southwest 286 329 22,500  Level Aus ATC (RADAR)
Mon 03:31:46 AM -32.0348 151.6991 216° Southwest 288 331 22,500  Level Aus ATC (RADAR)
Mon 03:32:36 AM -32.0898 151.6524 216° Southwest 289 333 22,500  Level Aus ATC (RADAR)
Mon 03:33:16 AM -32.1338 151.6145 216° Southwest 290 334 22,500  Level Aus ATC (RADAR)
Mon 03:34:16 AM -32.2008 151.5582 215° Southwest 292 336 22,500  Level Aus ATC (RADAR)
Mon 03:35:01 AM -32.2504 151.5156 216° Southwest 291 335 22,500  Level Aus ATC (RADAR)
Mon 03:35:35 AM -32.2892 151.4831 215° Southwest 288 331 22,500  Level Aus ATC (RADAR)
Mon 03:36:20 AM -32.3470 151.4515 205° Southwest 306 352 22,500  Level Aus ATC (RADAR)
Mon 03:36:50 AM -32.3912 151.4405 192° South 319 367 22,500  Level Aus ATC (RADAR)
Mon 03:37:51 AM -32.4783 151.4183 192° South 319 367 22,500  Level Aus ATC (RADAR)
Mon 03:38:39 AM -32.5526 151.3979 193° South 319 367 22,500  Level Aus ATC (RADAR)
Mon 03:39:14 AM -32.6030 151.3843 193° South 317 365 22,500  Level Aus ATC (RADAR)
Mon 03:40:00 AM -32.6656 151.3682 192° South 315 362 22,500  Level Aus ATC (RADAR)
Mon 03:40:30 AM -32.7081 151.3562 193° South 315 362 22,500 -646 Level Aus ATC (RADAR)
Mon 03:41:05 AM -32.7578 151.3419 194° South 316 364 21,800 -1,215 Descending Aus ATC (RADAR)
Mon 03:41:49 AM -32.8238 151.3244 193° South 323 372 20,900 -1,212 Descending Aus ATC (RADAR)
Mon 03:42:44 AM -32.9035 151.3030 193° South 319 367 19,800 -1,200 Descending Aus ATC (RADAR)
Mon 03:43:29 AM -32.9672 151.2850 193° South 315 362 18,900 -1,275 Descending Aus ATC (RADAR)
Mon 03:44:04 AM -33.0177 151.2713 193° South 320 368 18,100 -1,268 Descending Aus ATC (RADAR)
Mon 03:44:40 AM -33.0693 151.2568 193° South 327 376 17,400 -1,286 Descending Aus ATC (RADAR)
Mon 03:45:14 AM -33.1208 151.2424 193° South 327 376 16,600 -1,304 Descending Aus ATC (RADAR)
Mon 03:45:49 AM -33.1714 151.2284 193° South 321 369 15,900 -1,440 Descending Aus ATC (RADAR)
Mon 03:46:54 AM -33.2673 151.2172 186° South 324 373 14,200 -1,697 Descending Aus ATC (RADAR)
Mon 03:47:28 AM -33.3211 151.2154 182° South 317 365 13,100 -1,906 Descending Aus ATC (RADAR)
Mon 03:48:19 AM -33.3909 151.2124 182° South 303 349 11,500 -1,782 Descending Aus ATC (RADAR)
Mon 03:49:09 AM -33.4549 151.2084 183° South 273 314 10,100 -1,643 Descending Aus ATC (RADAR)
Mon 03:49:43 AM -33.4970 151.2063 182° South 258 297 9,200 -1,443 Descending Aus ATC (RADAR)
Mon 03:50:28 AM -33.5483 151.2037 182° South 245 282 8,200 -1,304 Descending Aus ATC (RADAR)
Mon 03:51:38 AM -33.6254 151.1982 183° South 237 273 6,700 -1,316 Descending Aus ATC (RADAR)
Mon 03:52:22 AM -33.6752 151.1942 184° South 229 264 5,700 -1,350 Descending Aus ATC (RADAR)
Mon 03:52:58 AM -33.7116 151.1869 190° South 235 270 4,900 -1,342 Descending Aus ATC (RADAR)
Mon 03:53:38 AM -33.7538 151.1782 190° South 231 266 4,000 -1,380 Descending Aus ATC (RADAR)
Mon 03:54:38 AM -33.8153 151.1632 192° South 220 253 2,600 -1,091 Descending Aus ATC (RADAR)
Mon 03:55:28 AM -33.8578 151.1638 179° South 178 205 2,000 -776 Descending Aus ATC (RADAR)
Mon 03:56:03 AM -33.8822 151.1714 166° South 156 180 1,500 -830 Descending Aus ATC (RADAR)
Mon 03:57:02 AM -33.9186 151.1803 169° South 125 144 700 -706 Descending Aus ATC (RADAR)
Mon 03:58:02 AM -33.9507 151.1887 168° South 116 133 100 -600 Descending Aus ATC (RADAR)

Login

Don't have an account? Register now (free) for customized features, flight alerts, and more!